MACE31 KCLT-KCHS
Flight info
| Callsign | MACE31 |
|---|---|
| Flight time | 0h 38m |
| Altitude | 23000 |
| Route | ICONS4 OSPRY7 FROM GMAST KCHS |
| Aircraft | F16/M-VGD/C |
Departure
| Time | 2026-05-05 01:26 |
|---|---|
| Airport | Charlotte Douglas International Airport (KCLT) |
Arrival
| Time | 2026-05-05 02:04 |
|---|---|
| Airport | Charleston International Airport (KCHS) |
| Time | Latitude | Longitude | Altitude | Speed | Heading |
|---|---|---|---|---|---|
| 2026-05-05 01:12 | 35.21725 | -80.93058 | 754 ft | 0 kts | 253° |
| 2026-05-05 01:13 | 35.21710 | -80.93119 | 754 ft | 10 kts | 253° |
| 2026-05-05 01:13 | 35.21698 | -80.93188 | 754 ft | 7 kts | 265° |
| 2026-05-05 01:13 | 35.21695 | -80.93229 | 754 ft | 0 kts | 265° |
| 2026-05-05 01:15 | 35.21693 | -80.93250 | 754 ft | 7 kts | 265° |
| 2026-05-05 01:15 | 35.21690 | -80.93298 | 754 ft | 4 kts | 265° |
| 2026-05-05 01:15 | 35.21689 | -80.93321 | 754 ft | 0 kts | 265° |
| 2026-05-05 01:16 | 35.21689 | -80.93322 | 754 ft | 0 kts | 265° |
| 2026-05-05 01:20 | 35.21688 | -80.93333 | 754 ft | 8 kts | 265° |
| 2026-05-05 01:21 | 35.21715 | -80.93404 | 754 ft | 11 kts | 346° |
| 2026-05-05 01:21 | 35.21811 | -80.93414 | 754 ft | 15 kts | 356° |
| 2026-05-05 01:21 | 35.22101 | -80.93435 | 754 ft | 74 kts | 356° |
| 2026-05-05 01:21 | 35.22312 | -80.93450 | 754 ft | 17 kts | 356° |
| 2026-05-05 01:22 | 35.22437 | -80.93458 | 757 ft | 18 kts | 356° |
| 2026-05-05 01:22 | 35.22551 | -80.93427 | 756 ft | 55 kts | 299° |
| 2026-05-05 01:22 | 35.22588 | -80.93511 | 754 ft | 0 kts | 264° |
| 2026-05-05 01:25 | 35.22588 | -80.93512 | 754 ft | 0 kts | 264° |
| 2026-05-05 01:25 | 35.22580 | -80.93601 | 754 ft | 18 kts | 252° |
| 2026-05-05 01:25 | 35.22546 | -80.93622 | 753 ft | 0 kts | 177° |
| 2026-05-05 01:26 | 35.22000 | -80.93575 | 754 ft | 192 kts | 176° |
| 2026-05-05 01:26 | 35.20200 | -80.93427 | 1157 ft | 287 kts | 177° |
| 2026-05-05 01:26 | 35.18415 | -80.93274 | 2028 ft | 243 kts | 176° |
| 2026-05-05 01:26 | 35.16758 | -80.93102 | 3071 ft | 236 kts | 175° |
| 2026-05-05 01:27 | 35.15134 | -80.92928 | 4081 ft | 235 kts | 176° |
| 2026-05-05 01:27 | 35.13351 | -80.92775 | 5271 ft | 279 kts | 178° |
| 2026-05-05 01:27 | 35.11303 | -80.92652 | 6734 ft | 278 kts | 182° |
| 2026-05-05 01:27 | 35.09494 | -80.92624 | 7898 ft | 254 kts | 186° |
| 2026-05-05 01:28 | 35.07607 | -80.92692 | 8135 ft | 295 kts | 186° |
| 2026-05-05 01:28 | 35.05560 | -80.92769 | 8105 ft | 293 kts | 185° |
| 2026-05-05 01:28 | 35.03516 | -80.92836 | 8010 ft | 294 kts | 185° |
| 2026-05-05 01:28 | 35.01508 | -80.92900 | 7982 ft | 271 kts | 186° |
| 2026-05-05 01:29 | 34.99684 | -80.92974 | 7979 ft | 250 kts | 187° |
| 2026-05-05 01:29 | 34.97809 | -80.93136 | 9157 ft | 312 kts | 189° |
| 2026-05-05 01:29 | 34.95494 | -80.93393 | 12420 ft | 364 kts | 188° |
| 2026-05-05 01:29 | 34.92857 | -80.93701 | 15582 ft | 410 kts | 189° |
| 2026-05-05 01:30 | 34.89728 | -80.94122 | 19351 ft | 497 kts | 189° |
| 2026-05-05 01:30 | 34.85973 | -80.94682 | 20767 ft | 585 kts | 189° |
| 2026-05-05 01:30 | 34.82025 | -80.95298 | 22164 ft | 562 kts | 190° |
| 2026-05-05 01:30 | 34.78180 | -80.95914 | 22633 ft | 562 kts | 190° |
| 2026-05-05 01:31 | 34.74290 | -80.96560 | 22958 ft | 562 kts | 190° |
| 2026-05-05 01:31 | 34.70386 | -80.97228 | 22987 ft | 567 kts | 191° |
| 2026-05-05 01:31 | 34.66495 | -80.97923 | 22991 ft | 544 kts | 191° |
| 2026-05-05 01:31 | 34.62901 | -80.98610 | 23007 ft | 530 kts | 192° |
| 2026-05-05 01:32 | 34.59215 | -80.99339 | 23022 ft | 549 kts | 192° |
| 2026-05-05 01:32 | 34.55387 | -81.00106 | 23026 ft | 560 kts | 192° |
| 2026-05-05 01:32 | 34.51514 | -81.00919 | 23027 ft | 565 kts | 192° |
| 2026-05-05 01:32 | 34.47673 | -81.01745 | 23025 ft | 568 kts | 192° |
| 2026-05-05 01:33 | 34.43777 | -81.02604 | 23025 ft | 569 kts | 193° |
| 2026-05-05 01:33 | 34.42876 | -81.02806 | 23024 ft | 569 kts | 193° |
| 2026-05-05 01:33 | 34.41430 | -81.03134 | 23032 ft | 569 kts | 193° |
| 2026-05-05 01:33 | 34.37514 | -81.04030 | 23080 ft | 569 kts | 193° |
| 2026-05-05 01:34 | 34.33647 | -81.04930 | 23104 ft | 569 kts | 193° |
| 2026-05-05 01:34 | 34.29734 | -81.05858 | 23112 ft | 570 kts | 193° |
| 2026-05-05 01:34 | 34.25881 | -81.06792 | 23114 ft | 570 kts | 194° |
| 2026-05-05 01:34 | 34.21974 | -81.07754 | 23114 ft | 570 kts | 194° |
| 2026-05-05 01:35 | 34.18947 | -81.08497 | 23114 ft | 570 kts | 194° |
| 2026-05-05 01:35 | 34.15056 | -81.09448 | 23114 ft | 570 kts | 194° |
| 2026-05-05 01:35 | 34.11214 | -81.10384 | 23114 ft | 570 kts | 194° |
| 2026-05-05 01:35 | 34.07264 | -81.11341 | 23114 ft | 570 kts | 194° |
| 2026-05-05 01:36 | 34.03388 | -81.12391 | 23116 ft | 569 kts | 196° |
| 2026-05-05 01:36 | 33.99573 | -81.13514 | 23115 ft | 569 kts | 196° |
| 2026-05-05 01:36 | 33.95716 | -81.14651 | 23114 ft | 569 kts | 196° |
| 2026-05-05 01:36 | 33.91864 | -81.15791 | 23114 ft | 569 kts | 196° |
| 2026-05-05 01:37 | 33.88010 | -81.16971 | 23114 ft | 568 kts | 198° |
| 2026-05-05 01:37 | 33.84263 | -81.18306 | 23115 ft | 568 kts | 199° |
| 2026-05-05 01:37 | 33.80493 | -81.19713 | 23114 ft | 568 kts | 200° |
| 2026-05-05 01:37 | 33.76710 | -81.21159 | 23114 ft | 567 kts | 200° |
| 2026-05-05 01:38 | 33.72990 | -81.22622 | 23114 ft | 567 kts | 200° |
| 2026-05-05 01:38 | 33.69153 | -81.23902 | 22850 ft | 574 kts | 194° |
| 2026-05-05 01:38 | 33.65137 | -81.24571 | 22105 ft | 585 kts | 186° |
| 2026-05-05 01:38 | 33.61075 | -81.24579 | 21364 ft | 593 kts | 177° |
| 2026-05-05 01:39 | 33.57427 | -81.22303 | 19269 ft | 620 kts | 140° |
| 2026-05-05 01:39 | 33.54536 | -81.18459 | 16428 ft | 644 kts | 127° |
| 2026-05-05 01:39 | 33.51849 | -81.14124 | 15031 ft | 639 kts | 128° |
| 2026-05-05 01:39 | 33.49294 | -81.09875 | 14413 ft | 630 kts | 126° |
| 2026-05-05 01:40 | 33.46858 | -81.05461 | 13637 ft | 630 kts | 124° |
| 2026-05-05 01:40 | 33.44532 | -81.01063 | 12775 ft | 632 kts | 123° |
| 2026-05-05 01:40 | 33.42193 | -80.96606 | 12057 ft | 632 kts | 123° |
| 2026-05-05 01:40 | 33.39824 | -80.92171 | 11642 ft | 629 kts | 124° |
| 2026-05-05 01:41 | 33.37396 | -80.87785 | 11090 ft | 630 kts | 125° |
| 2026-05-05 01:41 | 33.34894 | -80.83485 | 10925 ft | 626 kts | 127° |
| 2026-05-05 01:41 | 33.32336 | -80.79333 | 10993 ft | 623 kts | 128° |
| 2026-05-05 01:41 | 33.29685 | -80.75283 | 10994 ft | 623 kts | 130° |
| 2026-05-05 01:42 | 33.26894 | -80.71309 | 10994 ft | 622 kts | 132° |
| 2026-05-05 01:42 | 33.24061 | -80.67363 | 10995 ft | 622 kts | 130° |
| 2026-05-05 01:42 | 33.21412 | -80.63334 | 10994 ft | 623 kts | 128° |
| 2026-05-05 01:42 | 33.18846 | -80.59130 | 10994 ft | 623 kts | 126° |
| 2026-05-05 01:43 | 33.16407 | -80.54889 | 10994 ft | 624 kts | 125° |
| 2026-05-05 01:43 | 33.14017 | -80.50535 | 10994 ft | 624 kts | 124° |
| 2026-05-05 01:43 | 33.11692 | -80.46149 | 10994 ft | 624 kts | 123° |
| 2026-05-05 01:43 | 33.09587 | -80.42057 | 10958 ft | 535 kts | 122° |
| 2026-05-05 01:44 | 33.07861 | -80.38375 | 9609 ft | 482 kts | 113° |
| 2026-05-05 01:44 | 33.07150 | -80.34900 | 7902 ft | 392 kts | 92° |
| 2026-05-05 01:44 | 33.07298 | -80.31848 | 6043 ft | 349 kts | 85° |
| 2026-05-05 01:44 | 33.07498 | -80.29100 | 4346 ft | 316 kts | 86° |
| 2026-05-05 01:45 | 33.07737 | -80.26640 | 2862 ft | 288 kts | 85° |
| 2026-05-05 01:45 | 33.07939 | -80.24415 | 2657 ft | 261 kts | 88° |
| 2026-05-05 01:45 | 33.07665 | -80.22405 | 2528 ft | 240 kts | 111° |
| 2026-05-05 01:45 | 33.07083 | -80.20588 | 2318 ft | 227 kts | 113° |
| 2026-05-05 01:46 | 33.06500 | -80.18847 | 2034 ft | 226 kts | 113° |
| 2026-05-05 01:46 | 33.05923 | -80.17149 | 2000 ft | 215 kts | 115° |
| 2026-05-05 01:46 | 33.05201 | -80.15681 | 2000 ft | 203 kts | 130° |
| 2026-05-05 01:46 | 33.04208 | -80.14545 | 1978 ft | 192 kts | 143° |
| 2026-05-05 01:47 | 33.03140 | -80.13591 | 1971 ft | 193 kts | 144° |
| 2026-05-05 01:47 | 33.02037 | -80.12645 | 2014 ft | 198 kts | 148° |
| 2026-05-05 01:47 | 33.00844 | -80.11781 | 2005 ft | 205 kts | 150° |
| 2026-05-05 01:47 | 32.99706 | -80.10961 | 1772 ft | 179 kts | 150° |
| 2026-05-05 01:48 | 32.98654 | -80.10204 | 1497 ft | 174 kts | 150° |
| 2026-05-05 01:48 | 32.97568 | -80.09418 | 1259 ft | 193 kts | 149° |
| 2026-05-05 01:48 | 32.96438 | -80.08599 | 1058 ft | 198 kts | 150° |
| 2026-05-05 01:48 | 32.95240 | -80.07734 | 856 ft | 200 kts | 150° |
| 2026-05-05 01:49 | 32.94083 | -80.06891 | 632 ft | 181 kts | 149° |
| 2026-05-05 01:49 | 32.93046 | -80.06118 | 400 ft | 182 kts | 149° |
| 2026-05-05 01:49 | 32.91981 | -80.05320 | 207 ft | 162 kts | 149° |
| 2026-05-05 01:49 | 32.90767 | -80.04404 | 144 ft | 258 kts | 148° |
| 2026-05-05 01:50 | 32.89287 | -80.03281 | 300 ft | 237 kts | 148° |
| 2026-05-05 01:50 | 32.88003 | -80.02269 | 1425 ft | 236 kts | 147° |
| 2026-05-05 01:50 | 32.86637 | -80.01123 | 2362 ft | 246 kts | 134° |
| 2026-05-05 01:50 | 32.86225 | -79.99075 | 2768 ft | 296 kts | 74° |
| 2026-05-05 01:51 | 32.87732 | -79.97420 | 2913 ft | 306 kts | 9° |
| 2026-05-05 01:51 | 32.89263 | -79.95978 | 2964 ft | 303 kts | 60° |
| 2026-05-05 01:51 | 32.90150 | -79.93617 | 2959 ft | 323 kts | 58° |
| 2026-05-05 01:51 | 32.91889 | -79.92036 | 3016 ft | 319 kts | 14° |
| 2026-05-05 01:52 | 32.94006 | -79.92024 | 3057 ft | 292 kts | 355° |
| 2026-05-05 01:52 | 32.95909 | -79.92522 | 2976 ft | 271 kts | 330° |
| 2026-05-05 01:52 | 32.97416 | -79.93740 | 2988 ft | 266 kts | 323° |
| 2026-05-05 01:52 | 32.98927 | -79.95126 | 2955 ft | 282 kts | 321° |
| 2026-05-05 01:53 | 33.00497 | -79.96606 | 2968 ft | 295 kts | 320° |
| 2026-05-05 01:53 | 33.02170 | -79.98198 | 2512 ft | 324 kts | 320° |
| 2026-05-05 01:53 | 33.03843 | -79.99819 | 2263 ft | 277 kts | 320° |
| 2026-05-05 01:53 | 33.05300 | -80.01236 | 2104 ft | 261 kts | 320° |
| 2026-05-05 01:54 | 33.06681 | -80.02531 | 2059 ft | 250 kts | 321° |
| 2026-05-05 01:54 | 33.07965 | -80.03901 | 2000 ft | 253 kts | 300° |
| 2026-05-05 01:54 | 33.08201 | -80.05870 | 1985 ft | 236 kts | 262° |
| 2026-05-05 01:54 | 33.08028 | -80.07842 | 2006 ft | 244 kts | 262° |
| 2026-05-05 01:55 | 33.07523 | -80.09745 | 1983 ft | 248 kts | 227° |
| 2026-05-05 01:55 | 33.06022 | -80.10682 | 1983 ft | 250 kts | 190° |
| 2026-05-05 01:55 | 33.04217 | -80.10705 | 1966 ft | 268 kts | 178° |
| 2026-05-05 01:55 | 33.02389 | -80.10612 | 2008 ft | 237 kts | 178° |
| 2026-05-05 01:56 | 33.00985 | -80.10551 | 1934 ft | 179 kts | 176° |
| 2026-05-05 01:56 | 32.99693 | -80.10309 | 1844 ft | 199 kts | 168° |
| 2026-05-05 01:56 | 32.98369 | -80.09885 | 1693 ft | 184 kts | 161° |
| 2026-05-05 01:56 | 32.97329 | -80.09265 | 1284 ft | 155 kts | 152° |
| 2026-05-05 01:57 | 32.96291 | -80.08546 | 1006 ft | 200 kts | 150° |
| 2026-05-05 01:57 | 32.95173 | -80.07721 | 797 ft | 187 kts | 149° |
| 2026-05-05 01:57 | 32.94056 | -80.06884 | 593 ft | 192 kts | 149° |
| 2026-05-05 01:57 | 32.92956 | -80.06053 | 376 ft | 172 kts | 149° |
| 2026-05-05 01:58 | 32.91991 | -80.05333 | 176 ft | 200 kts | 148° |
| 2026-05-05 01:58 | 32.90510 | -80.04213 | 133 ft | 287 kts | 148° |
| 2026-05-05 01:58 | 32.88834 | -80.02854 | 411 ft | 275 kts | 127° |
| 2026-05-05 01:58 | 32.88799 | -80.00811 | 1176 ft | 288 kts | 57° |
| 2026-05-05 01:59 | 32.90550 | -79.99578 | 1895 ft | 296 kts | 6° |
| 2026-05-05 01:59 | 32.92383 | -79.99930 | 2021 ft | 249 kts | 339° |
| 2026-05-05 01:59 | 32.93855 | -80.00834 | 1998 ft | 241 kts | 324° |
| 2026-05-05 01:59 | 32.95262 | -80.01933 | 2019 ft | 241 kts | 326° |
| 2026-05-05 02:00 | 32.96673 | -80.03035 | 2038 ft | 245 kts | 325° |
| 2026-05-05 02:00 | 32.98096 | -80.04177 | 2053 ft | 253 kts | 324° |
| 2026-05-05 02:00 | 32.99577 | -80.05389 | 2057 ft | 260 kts | 324° |
| 2026-05-05 02:00 | 33.01068 | -80.06607 | 2084 ft | 264 kts | 324° |
| 2026-05-05 02:01 | 33.02431 | -80.08068 | 1932 ft | 264 kts | 297° |
| 2026-05-05 02:01 | 33.02654 | -80.10048 | 1722 ft | 238 kts | 257° |
| 2026-05-05 02:01 | 33.01809 | -80.11755 | 1521 ft | 254 kts | 222° |
| 2026-05-05 02:01 | 33.00198 | -80.12610 | 1495 ft | 261 kts | 185° |
| 2026-05-05 02:02 | 32.98823 | -80.11550 | 1385 ft | 239 kts | 130° |
| 2026-05-05 02:02 | 32.97821 | -80.10150 | 1161 ft | 208 kts | 134° |
| 2026-05-05 02:02 | 32.96812 | -80.09026 | 939 ft | 199 kts | 143° |
| 2026-05-05 02:02 | 32.95629 | -80.08074 | 810 ft | 200 kts | 148° |
| 2026-05-05 02:03 | 32.94525 | -80.07236 | 614 ft | 182 kts | 149° |
| 2026-05-05 02:03 | 32.93442 | -80.06425 | 419 ft | 198 kts | 149° |
| 2026-05-05 02:03 | 32.92705 | -80.05872 | 297 ft | 169 kts | 149° |
| 2026-05-05 02:03 | 32.91455 | -80.04924 | 95 ft | 163 kts | 149° |
| 2026-05-05 02:04 | 32.90874 | -80.04482 | 52 ft | 129 kts | 148° |
| 2026-05-05 02:04 | 32.90252 | -80.04015 | 51 ft | 77 kts | 148° |
| 2026-05-05 02:04 | 32.89933 | -80.03774 | 51 ft | 44 kts | 147° |
| 2026-05-05 02:04 | 32.89757 | -80.03651 | 51 ft | 20 kts | 161° |
| 2026-05-05 02:05 | 32.89641 | -80.03640 | 51 ft | 13 kts | 180° |
| 2026-05-05 02:05 | 32.89565 | -80.03663 | 51 ft | 11 kts | 256° |
| 2026-05-05 02:05 | 32.89574 | -80.03794 | 51 ft | 24 kts | 276° |
| 2026-05-05 02:05 | 32.89591 | -80.04003 | 51 ft | 25 kts | 274° |
| 2026-05-05 02:06 | 32.89604 | -80.04211 | 51 ft | 26 kts | 274° |